Time;durP1;ratioP1;P1;durP2;ratioP2;P2;SDS_P1;SDS_P2;PMS_P1;PMS_P2;Temp;Humidity;BMP_temperature;BMP_pressure;BME280_temperature;BME280_humidity;BME280_pressure;Samples;Min_cycle;Max_cycle;Signal;HPM_P1;HPM_P2
2021/12/06 00:00:43;;;;;;;37.80;21.40;;;2.50;99.90;;;;;;4973729;28;20173;-79
2021/12/06 00:03:11;;;;;;;36.38;21.60;;;2.80;99.90;;;;;;5019971;28;20114;-79
2021/12/06 00:05:37;;;;;;;42.67;21.73;;;2.40;99.90;;;;;;5034998;28;20041;-78
2021/12/06 00:08:03;;;;;;;42.28;22.10;;;2.30;99.90;;;;;;5000135;28;20046;-78
2021/12/06 00:10:29;;;;;;;38.25;21.38;;;2.30;99.90;;;;;;5000429;28;20100;-78
2021/12/06 00:12:55;;;;;;;40.20;22.00;;;3.70;99.90;;;;;;4976759;28;20503;-79
2021/12/06 00:15:21;;;;;;;40.10;23.23;;;2.30;99.90;;;;;;5026387;28;20091;-78
2021/12/06 00:17:47;;;;;;;42.55;23.50;;;2.30;99.90;;;;;;5006826;28;20061;-78
2021/12/06 00:20:14;;;;;;;40.65;23.10;;;3.30;99.90;;;;;;5041720;28;20124;-78
2021/12/06 00:22:40;;;;;;;46.25;23.52;;;2.30;99.90;;;;;;5022818;28;20037;-78
2021/12/06 00:25:09;;;;;;;42.83;22.20;;;2.30;99.90;;;;;;5008330;28;20038;-78
2021/12/06 00:27:38;;;;;;;44.45;23.27;;;2.30;99.90;;;;;;5030536;28;20033;-79
2021/12/06 00:30:06;;;;;;;40.40;22.98;;;2.30;99.90;;;;;;5013177;28;20524;-79
2021/12/06 00:32:32;;;;;;;41.72;23.75;;;2.30;99.90;;;;;;5061888;28;20038;-78
2021/12/06 00:34:58;;;;;;;39.83;21.90;;;2.30;99.90;;;;;;5038355;28;20102;-79
2021/12/06 00:37:30;;;;;;;45.70;25.50;;;2.30;99.90;;;;;;5042925;28;20042;-78
2021/12/06 00:39:59;;;;;;;47.38;24.52;;;2.50;99.90;;;;;;5013423;28;20480;-78
2021/12/06 00:42:30;;;;;;;46.63;24.52;;;2.30;99.90;;;;;;5040740;28;20044;-79
2021/12/06 00:44:56;;;;;;;;;;;2.40;99.90;;;;;;5007897;28;20044;-79
2021/12/06 00:47:22;;;;;;;40.95;21.55;;;2.60;99.90;;;;;;5026684;28;19925;-78
2021/12/06 00:49:49;;;;;;;42.90;22.63;;;2.70;99.90;;;;;;5025875;28;20077;-78
2021/12/06 00:52:16;;;;;;;40.75;22.92;;;3.50;99.90;;;;;;5021469;28;20038;-79
2021/12/06 00:54:43;;;;;;;46.05;24.20;;;2.70;99.90;;;;;;5009983;28;20033;-79
2021/12/06 00:57:10;;;;;;;47.10;25.02;;;3.50;99.90;;;;;;5040983;28;20041;-79
2021/12/06 00:59:36;;;;;;;42.92;24.35;;;2.40;99.90;;;;;;5028694;28;20598;-79
2021/12/06 01:02:05;;;;;;;46.25;25.27;;;2.40;99.90;;;;;;5038219;28;20076;-78
2021/12/06 01:04:33;;;;;;;44.03;23.80;;;2.40;99.90;;;;;;5026605;28;20410;-79
2021/12/06 01:06:59;;;;;;;45.10;24.58;;;3.40;99.90;;;;;;5027183;28;20044;-79
2021/12/06 01:09:25;;;;;;;47.55;26.80;;;2.50;99.90;;;;;;5042906;28;20071;-78
2021/12/06 01:11:51;;;;;;;45.17;24.75;;;2.40;99.90;;;;;;5011381;28;20127;-78
2021/12/06 01:14:17;;;;;;;50.00;26.10;;;2.50;99.90;;;;;;5028560;28;20037;-78
2021/12/06 01:16:43;;;;;;;45.75;24.95;;;2.60;99.90;;;;;;5004866;28;20056;-78
2021/12/06 01:19:09;;;;;;;43.55;24.17;;;2.40;99.90;;;;;;5042571;28;20037;-79
2021/12/06 01:24:09;;;;;;;47.08;24.60;;;3.20;99.90;;;;;;5020281;28;20045;-79
2021/12/06 01:32:18;;;;;;;;;;;2.40;99.90;;;;;;5023180;28;20111;-79
2021/12/06 01:40:12;;;;;;;44.17;23.30;;;2.50;99.90;;;;;;5026817;28;20278;-79
2021/12/06 01:42:38;;;;;;;46.53;24.25;;;2.40;99.90;;;;;;5055951;28;20037;-79
2021/12/06 01:45:05;;;;;;;43.28;23.92;;;2.80;99.90;;;;;;4990936;28;20037;-79
2021/12/06 01:47:33;;;;;;;45.05;24.55;;;2.50;99.90;;;;;;5032613;28;20080;-79
2021/12/06 01:50:10;;;;;;;47.95;24.67;;;3.70;99.90;;;;;;5060602;28;20058;-79
2021/12/06 01:52:42;;;;;;;44.90;24.58;;;2.50;99.90;;;;;;5040312;28;20033;-79
2021/12/06 01:55:11;;;;;;;44.35;23.90;;;2.50;99.90;;;;;;5053455;28;20044;-79
2021/12/06 01:57:38;;;;;;;51.85;25.13;;;3.50;99.90;;;;;;4993021;28;20030;-79
2021/12/06 02:00:08;;;;;;;50.00;24.85;;;2.50;99.90;;;;;;5022048;28;20025;-78
2021/12/06 02:02:34;;;;;;;53.30;26.05;;;2.50;99.90;;;;;;5023851;28;20045;-79
2021/12/06 02:05:00;;;;;;;48.17;24.85;;;2.50;99.90;;;;;;4980699;28;20070;-79
2021/12/06 02:07:26;;;;;;;49.33;25.20;;;2.50;99.90;;;;;;5010715;28;20045;-79
2021/12/06 02:09:54;;;;;;;50.20;25.45;;;2.80;99.90;;;;;;5002845;28;20120;-79
2021/12/06 02:12:20;;;;;;;49.80;25.35;;;2.60;99.90;;;;;;4990610;28;20040;-79
2021/12/06 02:17:22;;;;;;;43.95;24.08;;;2.80;99.90;;;;;;5012606;28;20045;-79
2021/12/06 02:19:53;;;;;;;42.53;22.92;;;2.50;99.90;;;;;;4994185;28;20107;-79
2021/12/06 02:22:25;;;;;;;45.55;22.73;;;3.00;99.90;;;;;;5031799;28;20073;-79
2021/12/06 02:24:52;;;;;;;46.05;24.00;;;3.40;99.90;;;;;;5028286;28;20037;-79
2021/12/06 02:27:20;;;;;;;44.45;23.58;;;2.50;99.90;;;;;;5009169;28;20046;-79
2021/12/06 02:29:48;;;;;;;48.97;25.95;;;2.60;99.90;;;;;;5014955;28;20065;-79
2021/12/06 02:32:15;;;;;;;48.00;24.42;;;3.70;99.90;;;;;;5002061;28;20037;-79
2021/12/06 02:34:44;;;;;;;45.08;25.85;;;2.60;99.90;;;;;;4993548;28;20061;-79
2021/12/06 02:37:13;;;;;;;50.63;26.58;;;2.80;99.90;;;;;;5042400;28;20057;-79
2021/12/06 02:39:39;;;;;;;49.72;25.88;;;3.10;99.90;;;;;;5037138;28;20084;-79
2021/12/06 02:42:08;;;;;;;47.65;25.55;;;2.60;99.90;;;;;;5032378;28;20033;-78
2021/12/06 02:44:34;;;;;;;49.88;27.13;;;3.90;99.90;;;;;;4997556;28;20095;-79
2021/12/06 02:47:00;;;;;;;51.72;25.63;;;2.60;99.90;;;;;;4992690;28;20057;-79
2021/12/06 02:49:26;;;;;;;49.60;26.45;;;2.90;99.90;;;;;;5044613;28;20047;-79
2021/12/06 02:51:52;;;;;;;47.92;26.15;;;2.50;99.90;;;;;;5058367;28;20091;-79
2021/12/06 02:54:23;;;;;;;47.40;25.40;;;2.50;99.90;;;;;;5011975;28;20037;-79
2021/12/06 02:56:56;;;;;;;48.95;26.02;;;3.50;99.90;;;;;;5040306;28;20029;-79
2021/12/06 02:59:25;;;;;;;53.17;27.20;;;3.70;99.90;;;;;;5016768;28;20376;-80
2021/12/06 03:02:06;;;;;;;51.75;27.52;;;2.50;99.90;;;;;;5030593;28;20149;-79
2021/12/06 03:04:32;;;;;;;56.70;27.80;;;2.50;99.90;;;;;;5063546;28;20037;-79
2021/12/06 03:06:59;;;;;;;51.85;27.13;;;2.50;99.90;;;;;;5038692;28;20049;-79
2021/12/06 03:09:29;;;;;;;48.33;26.13;;;2.50;99.90;;;;;;5028270;28;20052;-79
2021/12/06 03:11:59;;;;;;;49.17;24.83;;;2.50;99.90;;;;;;5012788;28;20037;-79
2021/12/06 03:14:37;;;;;;;52.27;26.30;;;3.60;99.90;;;;;;5042406;28;20045;-79
2021/12/06 03:17:06;;;;;;;48.58;25.63;;;2.50;99.90;;;;;;5014484;28;20338;-79
2021/12/06 03:19:33;;;;;;;55.65;26.77;;;2.50;99.90;;;;;;5021283;28;20174;-79
2021/12/06 03:21:59;;;;;;;51.35;26.00;;;3.60;99.90;;;;;;5024331;28;20473;-79
2021/12/06 03:24:26;;;;;;;55.05;26.40;;;2.50;99.90;;;;;;5039180;28;20093;-79
2021/12/06 03:26:53;;;;;;;53.33;26.50;;;2.50;99.90;;;;;;5037148;28;20037;-79
2021/12/06 03:29:20;;;;;;;51.92;27.52;;;2.50;99.90;;;;;;5026446;28;20079;-79
2021/12/06 03:31:47;;;;;;;49.72;24.90;;;2.50;99.90;;;;;;4993931;28;20485;-79
2021/12/06 03:34:14;;;;;;;57.72;27.38;;;2.50;99.90;;;;;;5004397;28;20041;-79
2021/12/06 03:36:40;;;;;;;50.70;26.05;;;2.50;99.90;;;;;;5055892;28;20541;-79
2021/12/06 03:39:23;;;;;;;58.42;28.83;;;2.60;99.90;;;;;;5037963;28;20424;-79
2021/12/06 03:41:50;;;;;;;58.45;28.88;;;2.60;99.90;;;;;;5008037;28;20388;-79
2021/12/06 03:44:16;;;;;;;54.95;26.60;;;2.50;99.90;;;;;;5019720;28;20044;-79
2021/12/06 03:46:44;;;;;;;59.50;28.10;;;2.50;99.90;;;;;;5035804;28;20053;-79
2021/12/06 03:49:12;;;;;;;57.70;26.70;;;3.50;99.90;;;;;;5024904;28;20045;-79
2021/12/06 03:51:38;;;;;;;53.70;27.83;;;2.50;99.90;;;;;;5042881;28;20123;-79
2021/12/06 03:54:04;;;;;;;54.95;26.10;;;2.50;99.90;;;;;;5042302;28;20053;-79
2021/12/06 03:56:30;;;;;;;61.88;29.60;;;2.50;99.90;;;;;;5061648;28;20503;-79
2021/12/06 03:58:56;;;;;;;65.18;31.40;;;3.50;99.90;;;;;;5038230;28;20037;-79
2021/12/06 04:01:22;;;;;;;56.83;29.00;;;2.50;99.90;;;;;;5030640;28;20124;-79
2021/12/06 04:03:49;;;;;;;58.08;28.15;;;2.50;99.90;;;;;;5076211;28;20048;-79
2021/12/06 04:06:15;;;;;;;57.17;28.40;;;2.70;99.90;;;;;;5074500;28;20037;-79
2021/12/06 04:08:41;;;;;;;59.03;27.65;;;2.60;99.90;;;;;;5056247;28;20037;-79
2021/12/06 04:11:08;;;;;;;59.33;28.23;;;2.50;99.90;;;;;;5042735;28;20067;-79
2021/12/06 04:13:34;;;;;;;56.22;25.85;;;2.70;99.90;;;;;;5057042;28;20040;-79
2021/12/06 04:16:00;;;;;;;65.15;29.33;;;2.50;99.90;;;;;;5059617;28;20405;-79
2021/12/06 04:18:26;;;;;;;63.13;29.38;;;2.40;99.90;;;;;;5053852;28;20547;-79
2021/12/06 04:20:53;;;;;;;62.17;29.80;;;2.40;99.90;;;;;;5033935;28;20230;-79
2021/12/06 04:23:19;;;;;;;55.42;27.52;;;2.50;99.90;;;;;;5036562;28;20060;-79
2021/12/06 04:25:44;;;;;;;63.80;29.98;;;2.40;99.90;;;;;;5034821;28;20041;-79
2021/12/06 04:28:14;;;;;;;63.15;30.67;;;2.40;99.90;;;;;;5068447;28;20045;-78
2021/12/06 04:30:40;;;;;;;64.32;30.58;;;2.50;99.90;;;;;;5055319;28;20044;-78
2021/12/06 04:33:06;;;;;;;71.35;30.73;;;2.50;99.90;;;;;;5054002;28;20487;-78
2021/12/06 04:35:35;;;;;;;60.78;30.80;;;2.90;99.90;;;;;;5052870;28;20100;-79
2021/12/06 04:38:02;;;;;;;62.05;29.40;;;2.50;99.90;;;;;;5043096;28;20154;-79
2021/12/06 04:40:28;;;;;;;65.90;30.83;;;2.50;99.90;;;;;;5055618;28;20093;-79
2021/12/06 04:42:55;;;;;;;66.72;29.48;;;2.50;99.90;;;;;;5018643;28;20029;-79
2021/12/06 04:45:21;;;;;;;65.18;29.88;;;2.50;99.90;;;;;;5033492;28;20404;-80
2021/12/06 04:47:49;;;;;;;76.30;30.77;;;2.90;99.90;;;;;;5038666;28;20049;-79
2021/12/06 04:50:17;;;;;;;61.72;28.15;;;2.50;99.90;;;;;;5051014;28;20048;-80
2021/12/06 04:52:42;;;;;;;66.22;30.38;;;2.50;99.90;;;;;;4997739;28;20461;-79
2021/12/06 04:55:21;;;;;;;63.40;29.20;;;3.60;99.90;;;;;;5035575;28;20064;-79
2021/12/06 04:57:47;;;;;;;66.80;30.30;;;2.40;99.90;;;;;;5020629;28;20273;-80
2021/12/06 05:00:37;;;;;;;67.63;29.40;;;2.40;99.90;;;;;;5029007;28;20048;-80
2021/12/06 05:03:05;;;;;;;65.85;31.33;;;2.50;99.90;;;;;;5017761;28;20116;-79
2021/12/06 05:05:40;;;;;;;68.30;29.65;;;2.50;99.90;;;;;;5017177;28;20299;-80
2021/12/06 05:08:15;;;;;;;69.30;30.15;;;2.50;99.90;;;;;;5041490;28;20033;-80
2021/12/06 05:10:41;;;;;;;70.88;31.05;;;2.50;99.90;;;;;;5000591;28;20032;-79
2021/12/06 05:13:07;;;;;;;62.58;30.00;;;2.50;99.90;;;;;;5016963;28;20190;-79
2021/12/06 05:15:33;;;;;;;72.47;31.27;;;2.50;99.90;;;;;;5019428;28;20638;-79
2021/12/06 05:17:59;;;;;;;77.03;31.88;;;2.50;99.90;;;;;;5049064;28;20036;-79
2021/12/06 05:20:25;;;;;;;75.03;32.53;;;2.50;99.90;;;;;;5001922;28;20036;-79
2021/12/06 05:22:53;;;;;;;67.90;31.05;;;2.50;99.90;;;;;;5015015;28;20052;-79
2021/12/06 05:25:23;;;;;;;76.20;31.80;;;2.50;99.90;;;;;;5000777;28;20040;-79
2021/12/06 05:27:50;;;;;;;75.30;33.00;;;2.50;99.90;;;;;;5039024;28;20040;-79
2021/12/06 05:30:19;;;;;;;74.53;29.75;;;2.50;99.90;;;;;;4988814;28;20119;-80
2021/12/06 05:32:45;;;;;;;68.13;30.70;;;2.50;99.90;;;;;;5000134;28;20044;-79
2021/12/06 05:35:11;;;;;;;71.22;30.45;;;2.60;99.90;;;;;;5063007;28;20033;-79
2021/12/06 05:37:40;;;;;;;70.60;32.78;;;3.20;99.90;;;;;;5035362;28;20108;-80
2021/12/06 05:40:10;;;;;;;71.30;31.10;;;3.00;99.90;;;;;;5010337;28;20183;-80
2021/12/06 05:42:36;;;;;;;67.32;29.98;;;2.60;99.90;;;;;;5063449;28;20773;-80
2021/12/06 05:45:03;;;;;;;59.92;29.60;;;2.60;99.90;;;;;;5046745;28;20421;-80
2021/12/06 05:47:29;;;;;;;67.97;30.42;;;2.60;99.90;;;;;;5046130;28;20044;-80
2021/12/06 05:49:55;;;;;;;72.88;29.67;;;3.90;99.90;;;;;;5048575;28;20485;-80
2021/12/06 05:52:21;;;;;;;75.13;30.83;;;3.50;99.90;;;;;;5016005;28;20612;-80
2021/12/06 05:54:46;;;;;;;73.35;29.90;;;2.60;99.90;;;;;;4985633;28;20037;-80
2021/12/06 05:57:14;;;;;;;77.13;32.63;;;2.60;99.90;;;;;;5012195;28;20160;-80
2021/12/06 05:59:41;;;;;;;77.28;31.38;;;2.60;99.90;;;;;;5023256;28;20134;-80
2021/12/06 06:02:09;;;;;;;83.32;33.58;;;2.60;99.90;;;;;;5035359;28;20036;-80
2021/12/06 06:04:36;;;;;;;70.55;30.75;;;2.60;99.90;;;;;;5033094;28;20049;-80
2021/12/06 06:07:02;;;;;;;72.85;30.52;;;2.60;99.90;;;;;;5037649;28;20041;-80
2021/12/06 06:09:27;;;;;;;80.30;32.53;;;2.60;99.90;;;;;;5029274;28;20404;-80
2021/12/06 06:11:53;;;;;;;80.03;33.22;;;2.70;99.90;;;;;;5013951;28;20040;-80
2021/12/06 06:14:19;;;;;;;76.75;32.05;;;2.60;99.90;;;;;;5035657;28;20090;-80
2021/12/06 06:16:51;;;;;;;76.88;32.03;;;2.70;99.90;;;;;;5050733;28;20484;-80
2021/12/06 06:19:20;;;;;;;69.15;30.35;;;2.70;99.90;;;;;;4999109;28;20033;-80
2021/12/06 06:21:47;;;;;;;75.05;29.85;;;2.60;99.90;;;;;;5030501;28;20033;-80
2021/12/06 06:24:13;;;;;;;79.45;32.22;;;2.70;99.90;;;;;;5031996;28;20051;-80
2021/12/06 06:26:39;;;;;;;75.38;30.35;;;2.60;99.90;;;;;;5033686;28;20037;-80
2021/12/06 06:29:06;;;;;;;72.07;30.25;;;2.70;99.90;;;;;;5017644;28;20052;-80
2021/12/06 06:31:31;;;;;;;76.53;32.33;;;3.50;99.90;;;;;;5017574;28;20048;-80
2021/12/06 06:33:57;;;;;;;74.15;31.42;;;3.90;99.90;;;;;;5051293;28;20572;-80
2021/12/06 06:36:23;;;;;;;75.55;29.58;;;4.20;99.90;;;;;;5026905;28;20047;-79
2021/12/06 06:38:48;;;;;;;71.07;30.15;;;2.60;99.90;;;;;;5020048;28;20385;-80
2021/12/06 06:41:14;;;;;;;74.93;33.47;;;3.00;99.90;;;;;;5001929;28;20033;-81
2021/12/06 06:43:40;;;;;;;73.78;30.60;;;3.10;99.90;;;;;;4997311;28;20048;-78
2021/12/06 06:46:06;;;;;;;67.18;27.80;;;2.60;99.90;;;;;;5043751;28;20068;-79
2021/12/06 06:48:33;;;;;;;67.78;31.15;;;2.60;99.90;;;;;;5031710;28;20127;-79
2021/12/06 06:50:59;;;;;;;74.07;29.92;;;2.80;99.90;;;;;;5034125;28;20045;-80
2021/12/06 06:53:26;;;;;;;81.20;31.92;;;2.60;99.90;;;;;;5027631;28;20436;-81
2021/12/06 06:55:53;;;;;;;72.82;29.85;;;2.60;99.90;;;;;;5033666;28;20041;-79
2021/12/06 06:58:19;;;;;;;67.38;28.77;;;2.60;99.90;;;;;;5015619;28;20029;-79
2021/12/06 07:00:45;;;;;;;70.65;30.90;;;2.50;99.90;;;;;;5050856;28;20086;-79
2021/12/06 07:03:11;;;;;;;74.13;29.77;;;2.50;99.90;;;;;;5031366;28;20033;-78
2021/12/06 07:05:37;;;;;;;74.03;30.77;;;2.60;99.90;;;;;;5029400;28;20037;-79
2021/12/06 07:08:04;;;;;;;68.63;28.55;;;2.50;99.90;;;;;;5024551;28;20032;-80
2021/12/06 07:10:29;;;;;;;70.90;29.48;;;2.50;99.90;;;;;;5020852;28;20569;-80
2021/12/06 07:12:56;;;;;;;78.50;31.20;;;3.40;99.90;;;;;;5008047;28;20111;-80
2021/12/06 07:15:25;;;;;;;73.97;28.05;;;2.50;99.90;;;;;;5085955;28;20040;-77
2021/12/06 07:17:52;;;;;;;74.47;32.35;;;2.70;99.90;;;;;;5054615;28;20485;-79
2021/12/06 07:20:19;;;;;;;77.18;30.30;;;2.70;99.90;;;;;;5045449;28;20029;-79
2021/12/06 07:22:47;;;;;;;73.53;29.15;;;2.50;99.90;;;;;;5034913;28;20166;-79
2021/12/06 07:25:14;;;;;;;76.32;30.00;;;2.50;99.90;;;;;;5086243;28;20395;-79
2021/12/06 07:27:40;;;;;;;82.78;32.28;;;2.50;99.90;;;;;;5072281;28;20085;-79
2021/12/06 07:30:09;;;;;;;79.68;31.27;;;2.50;99.90;;;;;;5037583;28;20081;-80
2021/12/06 07:32:35;;;;;;;75.38;30.75;;;2.50;99.90;;;;;;5051936;28;20037;-79
2021/12/06 07:35:02;;;;;;;77.22;29.80;;;2.50;99.90;;;;;;5042841;28;20028;-80
2021/12/06 07:37:28;;;;;;;70.80;30.27;;;2.50;99.90;;;;;;5016722;28;22237;-79
2021/12/06 07:39:53;;;;;;;70.20;29.88;;;2.50;99.90;;;;;;5084249;28;20080;-78
2021/12/06 07:42:19;;;;;;;70.90;30.60;;;2.40;99.90;;;;;;5053847;28;20126;-74
2021/12/06 07:44:45;;;;;;;72.65;29.60;;;2.40;99.90;;;;;;5047272;28;20484;-78
2021/12/06 07:47:12;;;;;;;75.65;29.60;;;3.10;99.90;;;;;;5047459;28;20163;-77
2021/12/06 07:49:39;;;;;;;70.22;29.83;;;2.80;99.90;;;;;;5023876;28;20059;-74
2021/12/06 07:52:06;;;;;;;67.55;29.48;;;3.40;99.90;;;;;;5063158;28;20051;-77
2021/12/06 07:54:32;;;;;;;73.82;29.48;;;2.40;99.90;;;;;;5027503;28;20040;-78
2021/12/06 07:56:58;;;;;;;70.70;29.33;;;2.50;99.90;;;;;;5050379;28;20052;-77
2021/12/06 07:59:24;;;;;;;64.97;26.40;;;2.50;99.90;;;;;;5044528;28;20036;-77
2021/12/06 08:01:50;;;;;;;58.47;25.98;;;2.40;99.90;;;;;;5028332;28;20562;-77
2021/12/06 08:04:16;;;;;;;64.55;25.90;;;2.50;99.90;;;;;;5043065;28;20079;-78
2021/12/06 08:06:42;;;;;;;60.92;26.45;;;2.60;99.90;;;;;;5048209;28;20047;-77
2021/12/06 08:09:08;;;;;;;63.45;25.13;;;2.50;99.90;;;;;;5066939;28;20036;-78
2021/12/06 08:11:34;;;;;;;61.40;26.20;;;2.70;99.90;;;;;;5066804;28;20165;-77
2021/12/06 08:14:01;;;;;;;61.15;25.95;;;2.40;99.90;;;;;;5086346;28;20029;-78
2021/12/06 08:16:33;;;;;;;51.20;22.40;;;2.40;99.90;;;;;;5049493;28;20089;-78
2021/12/06 08:18:59;;;;;;;61.00;25.23;;;2.40;99.90;;;;;;5033730;28;20396;-78
2021/12/06 08:21:26;;;;;;;60.55;24.75;;;2.40;99.90;;;;;;5046379;28;20055;-79
2021/12/06 08:23:53;;;;;;;57.10;24.63;;;2.40;99.90;;;;;;5067448;28;20036;-79
2021/12/06 08:26:23;;;;;;;50.78;23.75;;;2.80;99.90;;;;;;5047901;28;20040;-80
2021/12/06 08:28:50;;;;;;;60.35;24.73;;;2.50;99.90;;;;;;5042786;28;20040;-76
2021/12/06 08:31:18;;;;;;;56.63;24.25;;;2.40;99.90;;;;;;5086001;28;20476;-78
2021/12/06 08:33:45;;;;;;;55.78;25.30;;;3.40;99.90;;;;;;5059846;28;20042;-78
2021/12/06 08:36:11;;;;;;;62.20;25.98;;;2.40;99.90;;;;;;5092441;28;20044;-78
2021/12/06 08:38:39;;;;;;;54.63;24.10;;;3.50;99.90;;;;;;5086533;28;20041;-78
2021/12/06 08:41:10;;;;;;;52.30;23.95;;;2.40;99.90;;;;;;5077909;28;20032;-79
2021/12/06 08:43:37;;;;;;;55.05;24.00;;;2.40;99.90;;;;;;5038649;28;20072;-78
2021/12/06 08:46:07;;;;;;;52.08;23.52;;;3.90;99.90;;;;;;5038905;28;20041;-77
2021/12/06 08:48:37;;;;;;;49.88;22.55;;;2.40;99.90;;;;;;5059551;28;20124;-80
2021/12/06 08:51:08;;;;;;;53.25;22.88;;;2.40;99.90;;;;;;5051823;28;20584;-80
2021/12/06 08:53:35;;;;;;;;;;;3.60;99.90;;;;;;5054044;28;20491;-80
2021/12/06 08:56:01;;;;;;;52.20;24.02;;;3.40;99.90;;;;;;5070385;28;19920;-76
2021/12/06 08:58:27;;;;;;;50.60;22.60;;;2.80;99.90;;;;;;5054854;28;20032;-76
2021/12/06 09:00:53;;;;;;;54.97;23.33;;;2.50;99.90;;;;;;5057322;28;20040;-76
2021/12/06 09:03:19;;;;;;;44.95;21.02;;;2.40;99.90;;;;;;5014175;28;20068;-76
2021/12/06 09:05:48;;;;;;;55.08;23.98;;;2.40;99.90;;;;;;5083957;28;20043;-77
2021/12/06 09:08:15;;;;;;;43.38;21.00;;;2.50;99.90;;;;;;5082699;28;20043;-76
2021/12/06 09:10:42;;;;;;;49.08;22.02;;;2.50;99.90;;;;;;5055392;28;20048;-78
2021/12/06 09:13:08;;;;;;;47.88;22.23;;;2.50;99.90;;;;;;5067619;28;20037;-80
2021/12/06 09:15:34;;;;;;;43.88;20.42;;;2.50;99.90;;;;;;5057922;28;20492;-79
2021/12/06 09:18:01;;;;;;;42.50;19.17;;;2.50;99.90;;;;;;5051158;28;20344;-79
2021/12/06 09:20:34;;;;;;;46.60;22.92;;;2.50;99.90;;;;;;5067087;28;20348;-78
2021/12/06 09:23:01;;;;;;;49.60;21.85;;;2.40;99.90;;;;;;5037333;28;20060;-78
2021/12/06 09:25:28;;;;;;;40.17;20.33;;;2.50;99.90;;;;;;5035185;28;20040;-78
2021/12/06 09:27:54;;;;;;;39.95;15.90;;;2.70;99.90;;;;;;5048449;28;20028;-78
2021/12/06 09:30:24;;;;;;;50.95;21.52;;;2.40;99.90;;;;;;5038995;28;20093;-79
2021/12/06 09:32:50;;;;;;;44.70;20.92;;;2.50;99.90;;;;;;5068699;28;20040;-79
2021/12/06 09:35:22;;;;;;;40.47;19.98;;;2.80;99.90;;;;;;5048979;28;20044;-79
2021/12/06 09:37:48;;;;;;;42.33;18.88;;;2.50;99.90;;;;;;5045114;28;20044;-79
2021/12/06 09:40:15;;;;;;;40.45;19.55;;;2.40;99.90;;;;;;5057657;28;20037;-79
2021/12/06 09:42:45;;;;;;;42.38;20.40;;;2.50;99.90;;;;;;5068396;28;20044;-78
2021/12/06 09:45:16;;;;;;;38.60;17.58;;;2.50;99.90;;;;;;5020929;28;20127;-78
2021/12/06 09:47:49;;;;;;;31.58;13.68;;;2.50;99.90;;;;;;5041538;28;20460;-79
2021/12/06 09:50:16;;;;;;;42.35;19.63;;;2.90;99.90;;;;;;5070729;28;20127;-79
2021/12/06 09:52:42;;;;;;;43.17;18.92;;;2.40;99.90;;;;;;5052288;28;20045;-79
2021/12/06 09:55:11;;;;;;;42.53;18.70;;;2.40;99.90;;;;;;5028114;28;20095;-79
2021/12/06 09:57:39;;;;;;;45.63;21.55;;;2.40;99.90;;;;;;5025702;28;20045;-79
2021/12/06 10:00:12;;;;;;;39.92;19.60;;;2.40;99.90;;;;;;5054422;28;20481;-78
2021/12/06 10:02:38;;;;;;;45.50;21.10;;;2.50;99.90;;;;;;5053094;28;20208;-78
2021/12/06 10:05:06;;;;;;;46.00;19.98;;;2.50;99.90;;;;;;5053795;28;20070;-78
2021/12/06 10:07:32;;;;;;;41.95;20.35;;;2.60;99.90;;;;;;5046703;28;20127;-78
2021/12/06 10:09:59;;;;;;;30.08;15.25;;;2.70;99.90;;;;;;5052083;28;20124;-79
2021/12/06 10:12:26;;;;;;;36.30;16.42;;;2.60;99.90;;;;;;5062486;28;20040;-79
2021/12/06 10:14:55;;;;;;;40.47;17.85;;;2.60;99.90;;;;;;5049029;28;20095;-79
2021/12/06 10:17:21;;;;;;;44.25;19.40;;;2.50;99.90;;;;;;5049900;28;20049;-80
2021/12/06 10:19:48;;;;;;;48.63;21.88;;;2.60;99.90;;;;;;5061708;28;20068;-79
2021/12/06 10:22:15;;;;;;;48.75;22.30;;;2.50;99.90;;;;;;5044522;28;20048;-79
2021/12/06 10:24:49;;;;;;;45.30;17.85;;;2.60;99.90;;;;;;5060837;28;20041;-80
2021/12/06 10:27:16;;;;;;;44.58;20.10;;;2.60;99.90;;;;;;5024027;28;20045;-79
2021/12/06 10:29:46;;;;;;;46.15;20.83;;;2.60;99.90;;;;;;5049972;28;20102;-78
2021/12/06 10:32:17;;;;;;;48.13;22.08;;;3.50;99.90;;;;;;5086241;28;20052;-79
2021/12/06 10:35:03;;;;;;;48.78;23.10;;;4.00;99.90;;;;;;5056008;28;20028;-79
2021/12/06 10:37:47;;;;;;;51.97;25.13;;;2.70;99.90;;;;;;5046431;28;21541;-79
2021/12/06 10:40:21;;;;;;;52.80;26.92;;;2.70;99.90;;;;;;5084602;28;20044;-79
2021/12/06 10:42:49;;;;;;;58.33;28.02;;;2.70;99.90;;;;;;5025776;28;20041;-78
2021/12/06 10:45:17;;;;;;;58.38;26.67;;;2.70;99.90;;;;;;5066509;28;20040;-80
2021/12/06 10:48:02;;;;;;;60.65;26.80;;;3.90;99.90;;;;;;5029892;28;20131;-79
2021/12/06 10:50:28;;;;;;;55.65;26.15;;;2.60;99.90;;;;;;5066713;28;20036;-79
2021/12/06 10:52:57;;;;;;;55.80;24.38;;;2.70;99.90;;;;;;5079026;28;20037;-79
2021/12/06 10:55:27;;;;;;;47.05;23.55;;;2.70;99.90;;;;;;5030036;28;20132;-78
2021/12/06 10:57:56;;;;;;;48.25;22.70;;;2.70;99.90;;;;;;5060401;28;20909;-79
2021/12/06 11:01:06;;;;;;;48.75;23.38;;;3.10;99.90;;;;;;5078256;28;20045;-79
2021/12/06 11:03:40;;;;;;;39.92;15.77;;;2.70;99.90;;;;;;5024354;28;20045;-79
2021/12/06 11:06:16;;;;;;;38.85;21.00;;;2.70;99.90;;;;;;5058537;28;20084;-80
2021/12/06 11:08:43;;;;;;;37.72;17.20;;;2.80;99.90;;;;;;5031475;28;20071;-80
2021/12/06 11:11:24;;;;;;;44.90;21.65;;;2.80;99.90;;;;;;5060225;28;20410;-79
2021/12/06 11:13:53;;;;;;;37.05;19.13;;;3.10;99.90;;;;;;5044034;28;20107;-79
2021/12/06 11:16:26;;;;;;;31.25;15.43;;;2.80;99.90;;;;;;5027254;28;20071;-79
2021/12/06 11:18:55;;;;;;;32.15;17.52;;;2.80;99.90;;;;;;5060231;28;20054;-78
2021/12/06 11:21:27;;;;;;;31.98;15.55;;;2.70;99.90;;;;;;5064737;28;20521;-80
2021/12/06 11:24:20;;;;;;;31.67;13.85;;;2.80;99.90;;;;;;5045553;28;20702;-79
2021/12/06 11:27:10;;;;;;;34.88;17.55;;;2.70;99.90;;;;;;5080171;28;20044;-78
2021/12/06 11:29:39;;;;;;;28.40;15.38;;;2.80;99.90;;;;;;5077428;28;20110;-80
2021/12/06 11:32:12;;;;;;;29.50;15.75;;;2.90;99.90;;;;;;5022828;28;20037;-79
2021/12/06 11:35:06;;;;;;;27.48;11.18;;;2.80;99.90;;;;;;5075841;28;20440;-79
2021/12/06 11:37:44;;;;;;;30.52;16.02;;;2.80;99.90;;;;;;5066675;28;20049;-79
2021/12/06 11:40:27;;;;;;;29.08;16.63;;;2.80;99.90;;;;;;5075972;28;20087;-79
2021/12/06 11:42:57;;;;;;;29.17;15.27;;;2.90;99.90;;;;;;5043645;28;20071;-80
2021/12/06 11:45:52;;;;;;;33.08;15.43;;;3.50;99.90;;;;;;5045100;28;20048;-79
2021/12/06 11:48:30;;;;;;;33.47;16.52;;;2.90;99.90;;;;;;5060751;28;20136;-80
2021/12/06 11:51:05;;;;;;;34.30;16.27;;;3.00;99.90;;;;;;5014283;28;20132;-80
2021/12/06 11:53:38;;;;;;;33.70;16.58;;;3.00;99.90;;;;;;5059885;28;20145;-79
2021/12/06 11:56:07;;;;;;;29.88;16.13;;;3.10;99.90;;;;;;5040042;28;20041;-79
2021/12/06 11:58:42;;;;;;;27.45;15.75;;;3.60;99.90;;;;;;5034708;28;20125;-79
2021/12/06 12:01:13;;;;;;;28.13;15.30;;;3.00;99.90;;;;;;5007652;28;20452;-79
2021/12/06 12:03:40;;;;;;;35.47;16.77;;;3.00;99.90;;;;;;5021467;28;20041;-80
2021/12/06 12:06:28;;;;;;;37.83;16.63;;;3.00;99.90;;;;;;5024388;28;20041;-79
2021/12/06 12:09:22;;;;;;;34.95;18.00;;;3.00;99.90;;;;;;5056212;28;20091;-79
2021/12/06 12:11:59;;;;;;;36.67;18.40;;;3.20;99.90;;;;;;4984075;28;20118;-79
2021/12/06 12:14:49;;;;;;;32.83;18.85;;;4.20;99.90;;;;;;5032175;28;20537;-79
2021/12/06 12:17:22;;;;;;;35.70;17.83;;;3.10;99.90;;;;;;5010606;28;20033;-77
2021/12/06 12:19:50;;;;;;;37.67;19.95;;;3.10;99.90;;;;;;5038175;28;20140;-80
2021/12/06 12:22:17;;;;;;;35.13;20.58;;;3.10;99.90;;;;;;5012333;28;20029;-80
2021/12/06 12:24:47;;;;;;;38.75;19.02;;;3.20;99.90;;;;;;4991690;28;20409;-79
2021/12/06 12:27:30;;;;;;;36.80;17.50;;;3.20;99.90;;;;;;4991993;28;20122;-77
2021/12/06 12:29:59;;;;;;;34.25;19.58;;;3.20;99.90;;;;;;5006242;28;20084;-79
2021/12/06 12:32:27;;;;;;;37.80;19.40;;;3.20;99.90;;;;;;5007832;28;20076;-79
2021/12/06 12:34:55;;;;;;;35.10;18.35;;;3.20;99.90;;;;;;5004978;28;20079;-79
2021/12/06 12:37:22;;;;;;;33.72;17.95;;;3.30;99.90;;;;;;5002447;28;20056;-79
2021/12/06 12:39:59;;;;;;;30.13;14.93;;;3.30;99.90;;;;;;5003587;28;20029;-80
2021/12/06 12:42:25;;;;;;;33.78;17.23;;;3.30;99.90;;;;;;4983335;28;20104;-79
2021/12/06 12:44:54;;;;;;;41.55;19.15;;;3.30;99.90;;;;;;5011953;28;20052;-79
2021/12/06 12:47:24;;;;;;;30.95;16.67;;;3.30;99.90;;;;;;5008629;28;20091;-79
2021/12/06 12:49:56;;;;;;;31.75;16.55;;;4.60;99.90;;;;;;5033865;28;20076;-79
2021/12/06 12:52:48;;;;;;;30.40;16.35;;;3.30;99.90;;;;;;5006282;28;20045;-79
2021/12/06 12:55:28;;;;;;;37.53;17.75;;;3.30;99.90;;;;;;5049948;28;20064;-80
2021/12/06 12:58:14;;;;;;;40.50;17.48;;;3.40;99.90;;;;;;5071305;28;20028;-80
2021/12/06 13:00:52;;;;;;;42.33;19.85;;;3.30;99.90;;;;;;5049004;28;20473;-79
2021/12/06 13:03:51;;;;;;;38.25;18.27;;;3.90;99.90;;;;;;5065061;28;20059;-80